Marco Polo — C6JZ7 — position and weather

sailwx.info

Track history (hours):
 
Tides and Currents Weather Stations Pressure Air Temp Water Temp Dewpoint Dewpoint Depression Visibility Wind Speed Wind Dir Waves Ship Positions

Marco Polo

Operator: Orient Lines

Last reported at 2018-Aug-14 13:28 UTC. Time now 2018-Aug-14 13:47 UTC.
Position N 64°09' W 021°52'.

Type: Ship. MMSI: 308691456.

Date/timePositionNaut miles runAvg speedWind from/ knotsBaromVisibWave heightAir tempDewpointWater temp
2018-Aug-14 13:28N 64°09' W 021°52'0 0.0
2018-Aug-14 12:58N 64°09' W 021°52'0 0.0
2018-Aug-14 12:28N 64°09' W 021°52'0 0.0
2018-Aug-14 11:58N 64°09' W 021°52'0 0.0
2018-Aug-14 11:28N 64°09' W 021°52'0 0.0
2018-Aug-14 10:58N 64°09' W 021°52'  
2018-Aug-10 20:55N 63°18' W 051°45'716.3
2018-Aug-10 20:30N 63°24' W 051°51'816.0
2018-Aug-10 20:00N 63°31' W 051°58'815.9
2018-Aug-10 19:30N 63°39' W 052°04'816.0
2018-Aug-10 19:00N 63°46' W 052°11'816.0
2018-Aug-10 18:30N 63°54' W 052°18'714.5
2018-Aug-10 18:00N 64°01' W 052°19'714.5
2018-Aug-10 17:30N 64°05' W 052°05'713.9
2018-Aug-10 17:00N 64°08' W 051°51'4 7.4
2018-Aug-10 16:28N 64°10' W 051°43'0 0.0
2018-Aug-10 15:58N 64°10' W 051°43'0 0.0
2018-Aug-10 15:28N 64°10' W 051°43'0 0.0
2018-Aug-10 14:58N 64°10' W 051°43'0 0.0
2018-Aug-10 14:28N 64°10' W 051°43'0 0.0
2018-Aug-10 13:58N 64°10' W 051°43'0 0.0
2018-Aug-10 13:28N 64°10' W 051°43'0 0.0
2018-Aug-10 12:58N 64°10' W 051°43'0 0.0
2018-Aug-10 12:28N 64°10' W 051°43'0 0.0
2018-Aug-10 11:58N 64°10' W 051°43'0 0.6
2018-Aug-10 11:30N 64°10' W 051°43'1 2.1
2018-Aug-10 11:00N 64°09' W 051°45'510.8
2018-Aug-10 10:31N 64°07' W 051°56'713.5
2018-Aug-10 10:00N 64°03' W 052°10'612.9
2018-Aug-10 09:30N 64°07' W 052°22'816.4
2018-Aug-10 09:01N 64°13' W 052°35'815.7
2018-Aug-10 08:30N 64°19' W 052°45'815.8
2018-Aug-10 08:00N 64°27' W 052°49'816.1
2018-Aug-10 07:30N 64°35' W 052°54'816.3
2018-Aug-10 07:00N 64°43' W 052°58'816.6
2018-Aug-10 06:30N 64°51' W 053°03'816.2
2018-Aug-10 06:00N 64°59' W 053°09'816.3
2018-Aug-10 05:30N 65°07' W 053°12'816.4
2018-Aug-10 05:00N 65°15' W 053°16'1016.4
2018-Aug-10 04:25N 65°24' W 053°22'3716.4
2018-Aug-10 02:09N 66°00' W 053°43'314.8
2018-Aug-10 01:58N 66°01' W 053°36'1 0.1
2018-Aug-09 00:34N 66°01' W 053°39'60 2.4
2018-Aug-07 23:33N 65°01' W 053°16'112.5
2018-Aug-07 23:30N 65°01' W 053°15'713.4
2018-Aug-07 23:00N 64°55' W 053°10'713.2
2018-Aug-07 22:30N 64°48' W 053°05'713.2
2018-Aug-07 22:00N 64°42' W 053°01'713.3
2018-Aug-07 21:30N 64°36' W 052°56'713.6
2018-Aug-07 21:01N 64°29' W 052°52'713.5
2018-Aug-07 20:30N 64°23' W 052°47'713.7
2018-Aug-07 20:00N 64°16' W 052°43'713.7
2018-Aug-07 19:30N 64°10' W 052°38'714.0
2018-Aug-07 19:00N 64°03' W 052°33'713.9
2018-Aug-07 18:30N 63°57' W 052°28'714.4
2018-Aug-07 18:00N 63°50' W 052°21'714.5
2018-Aug-07 17:30N 63°44' W 052°13'714.9
2018-Aug-07 17:00N 63°37' W 052°04'715.0
2018-Aug-07 16:30N 63°31' W 051°56'914.6
2018-Aug-07 15:53N 63°23' W 051°46'  
Track history (hours):
 
Tides and Currents Weather Stations Pressure Air Temp Water Temp Dewpoint Dewpoint Depression Visibility Wind Speed Wind Dir Waves Ship Positions

Marco Polo

Operator: Orient Lines

Last reported at 2018-Aug-14 13:28 UTC. Time now 2018-Aug-14 13:47 UTC.
Position N 64°09' W 021°52'.

Type: Ship. MMSI: 308691456.

Date/timePositionNaut miles runAvg speedWind from/ knotsBaromVisibWave heightAir tempDewpointWater temp
2018-Aug-14 13:28N 64°09' W 021°52'0 0.0
2018-Aug-14 12:58N 64°09' W 021°52'0 0.0
2018-Aug-14 12:28N 64°09' W 021°52'0 0.0
2018-Aug-14 11:58N 64°09' W 021°52'0 0.0
2018-Aug-14 11:28N 64°09' W 021°52'0 0.0
2018-Aug-14 10:58N 64°09' W 021°52'  
2018-Aug-10 20:55N 63°18' W 051°45'716.3
2018-Aug-10 20:30N 63°24' W 051°51'816.0
2018-Aug-10 20:00N 63°31' W 051°58'815.9
2018-Aug-10 19:30N 63°39' W 052°04'816.0
2018-Aug-10 19:00N 63°46' W 052°11'816.0
2018-Aug-10 18:30N 63°54' W 052°18'714.5
2018-Aug-10 18:00N 64°01' W 052°19'714.5
2018-Aug-10 17:30N 64°05' W 052°05'713.9
2018-Aug-10 17:00N 64°08' W 051°51'4 7.4
2018-Aug-10 16:28N 64°10' W 051°43'0 0.0
2018-Aug-10 15:58N 64°10' W 051°43'0 0.0
2018-Aug-10 15:28N 64°10' W 051°43'0 0.0
2018-Aug-10 14:58N 64°10' W 051°43'0 0.0
2018-Aug-10 14:28N 64°10' W 051°43'0 0.0
2018-Aug-10 13:58N 64°10' W 051°43'0 0.0
2018-Aug-10 13:28N 64°10' W 051°43'0 0.0
2018-Aug-10 12:58N 64°10' W 051°43'0 0.0
2018-Aug-10 12:28N 64°10' W 051°43'0 0.0
2018-Aug-10 11:58N 64°10' W 051°43'0 0.6
2018-Aug-10 11:30N 64°10' W 051°43'1 2.1
2018-Aug-10 11:00N 64°09' W 051°45'510.8
2018-Aug-10 10:31N 64°07' W 051°56'713.5
2018-Aug-10 10:00N 64°03' W 052°10'612.9
2018-Aug-10 09:30N 64°07' W 052°22'816.4
2018-Aug-10 09:01N 64°13' W 052°35'815.7
2018-Aug-10 08:30N 64°19' W 052°45'815.8
2018-Aug-10 08:00N 64°27' W 052°49'816.1
2018-Aug-10 07:30N 64°35' W 052°54'816.3
2018-Aug-10 07:00N 64°43' W 052°58'816.6
2018-Aug-10 06:30N 64°51' W 053°03'816.2
2018-Aug-10 06:00N 64°59' W 053°09'816.3
2018-Aug-10 05:30N 65°07' W 053°12'816.4
2018-Aug-10 05:00N 65°15' W 053°16'1016.4
2018-Aug-10 04:25N 65°24' W 053°22'3716.4
2018-Aug-10 02:09N 66°00' W 053°43'314.8
2018-Aug-10 01:58N 66°01' W 053°36'1 0.1
2018-Aug-09 00:34N 66°01' W 053°39'60 2.4
2018-Aug-07 23:33N 65°01' W 053°16'112.5
2018-Aug-07 23:30N 65°01' W 053°15'713.4
2018-Aug-07 23:00N 64°55' W 053°10'713.2
2018-Aug-07 22:30N 64°48' W 053°05'713.2
2018-Aug-07 22:00N 64°42' W 053°01'713.3
2018-Aug-07 21:30N 64°36' W 052°56'713.6
2018-Aug-07 21:01N 64°29' W 052°52'713.5
2018-Aug-07 20:30N 64°23' W 052°47'713.7
2018-Aug-07 20:00N 64°16' W 052°43'713.7
2018-Aug-07 19:30N 64°10' W 052°38'714.0
2018-Aug-07 19:00N 64°03' W 052°33'713.9
2018-Aug-07 18:30N 63°57' W 052°28'714.4
2018-Aug-07 18:00N 63°50' W 052°21'714.5
2018-Aug-07 17:30N 63°44' W 052°13'714.9
2018-Aug-07 17:00N 63°37' W 052°04'715.0
2018-Aug-07 16:30N 63°31' W 051°56'914.6
2018-Aug-07 15:53N 63°23' W 051°46'  

Dump ship's entire track history